Time;durP1;ratioP1;P1;durP2;ratioP2;P2;SDS_P1;SDS_P2;PMS_P1;PMS_P2;Temp;Humidity;BMP_temperature;BMP_pressure;BME280_temperature;BME280_humidity;BME280_pressure;Samples;Min_cycle;Max_cycle;Signal;HPM_P1;HPM_P2
2021/07/16 00:01:45;;;;;;;9.02;4.00;;;;;;;;;;5051830;28;20052;-83
2021/07/16 00:04:11;;;;;;;6.45;4.22;;;;;;;;;;5052461;28;20137;-85
2021/07/16 00:06:37;;;;;;;9.52;4.00;;;;;;;;;;5051135;28;20053;-85
2021/07/16 00:09:04;;;;;;;5.18;3.90;;;;;;;;;;5053120;28;20021;-85
2021/07/16 00:11:30;;;;;;;7.57;3.80;;;;;;;;;;5051703;28;20468;-84
2021/07/16 00:13:57;;;;;;;8.60;3.50;;;;;;;;;;5052654;28;20374;-85
2021/07/16 00:16:23;;;;;;;7.65;3.90;;;;;;;;;;5052481;28;20112;-84
2021/07/16 00:18:49;;;;;;;9.90;3.65;;;;;;;;;;5052598;28;20025;-85
2021/07/16 00:21:15;;;;;;;8.10;3.70;;;;;;;;;;5052705;28;20382;-85
2021/07/16 00:23:42;;;;;;;6.25;3.70;;;;;;;;;;5052665;28;20516;-86
2021/07/16 00:26:08;;;;;;;4.25;3.83;;;;;;;;;;5051707;28;20047;-85
2021/07/16 00:28:34;;;;;;;7.07;3.85;;;;;;;;;;5052578;28;20032;-84
2021/07/16 00:31:00;;;;;;;5.95;3.60;;;;;;;;;;5052597;28;20554;-85
2021/07/16 00:33:26;;;;;;;7.20;3.80;;;;;;;;;;5050990;28;20029;-84
2021/07/16 00:35:52;;;;;;;5.03;3.58;;;;;;;;;;5052114;28;20128;-85
2021/07/16 00:38:18;;;;;;;7.90;3.90;;;;;;;;;;5051066;28;20035;-84
2021/07/16 00:40:44;;;;;;;6.80;3.92;;;;;;;;;;5050645;28;20108;-84
2021/07/16 00:43:10;;;;;;;5.47;4.00;;;;;;;;;;5052061;28;20036;-85
2021/07/16 00:45:36;;;;;;;7.13;3.50;;;;;;;;;;5050806;28;20022;-85
2021/07/16 00:48:02;;;;;;;7.97;3.90;;;;;;;;;;5051921;28;20162;-84
2021/07/16 00:50:38;;;;;;;9.27;3.63;;;;;;;;;;5051975;28;20025;-84
2021/07/16 00:53:09;;;;;;;5.50;3.38;;;;;;;;;;5052052;28;20032;-84
2021/07/16 00:55:35;;;;;;;4.07;2.92;;;;;;;;;;5052084;28;20408;-83
2021/07/16 00:58:01;;;;;;;5.65;3.50;;;;;;;;;;5052301;28;20096;-84
2021/07/16 01:00:27;;;;;;;7.20;3.60;;;;;;;;;;5050509;28;20029;-84
2021/07/16 01:02:53;;;;;;;7.75;3.70;;;;;;;;;;5051744;28;20470;-84
2021/07/16 01:05:19;;;;;;;5.90;3.40;;;;;;;;;;5051621;28;20337;-85
2021/07/16 01:07:46;;;;;;;10.57;4.00;;;;;;;;;;5050175;28;20342;-86
2021/07/16 01:10:13;;;;;;;11.15;4.18;;;;;;;;;;5050433;28;20021;-83
2021/07/16 01:12:39;;;;;;;7.57;4.20;;;;;;;;;;5050379;28;20028;-85
2021/07/16 01:15:06;;;;;;;7.53;4.00;;;;;;;;;;5049971;28;20029;-85
2021/07/16 01:17:32;;;;;;;6.25;4.07;;;;;;;;;;5050051;28;20491;-84
2021/07/16 01:20:05;;;;;;;9.73;4.25;;;;;;;;;;5051611;28;20518;-85
2021/07/16 01:22:32;;;;;;;8.40;3.80;;;;;;;;;;5051462;28;20490;-84
2021/07/16 01:24:58;;;;;;;;;;;;;;;;;;5051872;28;20361;-84
2021/07/16 01:27:24;;;;;;;8.25;3.88;;;;;;;;;;5051191;28;19970;-84
2021/07/16 01:29:50;;;;;;;7.93;3.50;;;;;;;;;;5049937;28;20029;-83
2021/07/16 01:32:17;;;;;;;8.43;4.18;;;;;;;;;;5050080;28;20048;-84
2021/07/16 01:34:43;;;;;;;;;;;;;;;;;;5049935;28;20072;-85
2021/07/16 01:37:10;;;;;;;7.45;3.83;;;;;;;;;;5049453;28;20134;-85
2021/07/16 01:39:36;;;;;;;6.80;3.50;;;;;;;;;;5051450;28;20021;-85
2021/07/16 01:42:02;;;;;;;6.72;3.60;;;;;;;;;;5049924;28;20110;-85
2021/07/16 01:44:28;;;;;;;5.40;3.40;;;;;;;;;;5049357;28;20025;-84
2021/07/16 01:46:54;;;;;;;6.43;3.63;;;;;;;;;;5050671;28;20287;-84
2021/07/16 01:49:20;;;;;;;4.75;3.50;;;;;;;;;;5049836;28;20033;-84
2021/07/16 01:51:46;;;;;;;8.30;3.50;;;;;;;;;;5050632;28;20144;-84
2021/07/16 01:54:12;;;;;;;8.65;3.67;;;;;;;;;;5049398;28;20040;-83
2021/07/16 01:56:38;;;;;;;8.68;4.00;;;;;;;;;;5050297;28;20536;-84
2021/07/16 01:59:04;;;;;;;6.72;4.18;;;;;;;;;;5050746;28;20032;-85
2021/07/16 02:01:30;;;;;;;8.25;4.35;;;;;;;;;;5050865;28;20372;-85
2021/07/16 02:03:56;;;;;;;7.68;4.57;;;;;;;;;;5051008;28;20053;-84
2021/07/16 02:06:22;;;;;;;6.60;3.85;;;;;;;;;;5050958;28;20400;-84
2021/07/16 02:08:48;;;;;;;8.30;4.10;;;;;;;;;;5048660;28;20145;-83
2021/07/16 02:11:16;;;;;;;7.50;4.30;;;;;;;;;;5050682;28;20325;-83
2021/07/16 02:13:42;;;;;;;5.05;3.80;;;;;;;;;;5049137;28;20025;-85
2021/07/16 02:16:08;;;;;;;6.97;3.78;;;;;;;;;;5048972;28;20106;-84
2021/07/16 02:18:34;;;;;;;7.55;3.97;;;;;;;;;;5050104;28;20048;-84
2021/07/16 02:21:00;;;;;;;5.95;3.83;;;;;;;;;;5050520;28;20082;-84
2021/07/16 02:23:28;;;;;;;7.40;3.80;;;;;;;;;;5049226;28;20555;-84
2021/07/16 02:25:54;;;;;;;6.15;3.60;;;;;;;;;;5048970;28;20036;-85
2021/07/16 02:28:22;;;;;;;5.53;3.80;;;;;;;;;;5049674;28;20102;-84
2021/07/16 02:30:48;;;;;;;11.05;4.10;;;;;;;;;;5050385;28;20537;-84
2021/07/16 02:33:15;;;;;;;7.28;3.72;;;;;;;;;;5048914;28;20101;-85
2021/07/16 02:35:41;;;;;;;9.70;3.53;;;;;;;;;;5050467;28;20028;-83
2021/07/16 02:38:07;;;;;;;9.65;3.70;;;;;;;;;;5049843;28;20121;-84
2021/07/16 02:40:34;;;;;;;5.70;3.50;;;;;;;;;;5050150;28;20480;-85
2021/07/16 02:43:00;;;;;;;14.05;4.32;;;;;;;;;;5048660;28;20045;-84
2021/07/16 02:45:27;;;;;;;6.60;3.90;;;;;;;;;;5050426;28;20037;-84
2021/07/16 02:47:53;;;;;;;9.02;4.32;;;;;;;;;;5048785;28;20048;-84
2021/07/16 02:50:29;;;;;;;5.50;3.90;;;;;;;;;;5048785;28;20079;-85
2021/07/16 02:52:56;;;;;;;7.13;4.00;;;;;;;;;;5048807;28;20032;-85
2021/07/16 02:55:23;;;;;;;6.93;3.85;;;;;;;;;;5050095;28;20025;-85
2021/07/16 02:57:49;;;;;;;6.82;3.80;;;;;;;;;;5048267;28;20368;-85
2021/07/16 03:00:20;;;;;;;12.10;3.30;;;;;;;;;;5048764;28;20527;-86
2021/07/16 03:02:47;;;;;;;7.00;3.30;;;;;;;;;;5048085;28;20082;-84
2021/07/16 03:05:21;;;;;;;6.25;3.72;;;;;;;;;;5050152;28;20021;-84
2021/07/16 03:07:48;;;;;;;6.65;3.53;;;;;;;;;;5048195;28;20394;-84
2021/07/16 03:10:16;;;;;;;3.65;2.75;;;;;;;;;;5052363;28;20390;-85
2021/07/16 03:12:42;;;;;;;6.90;3.35;;;;;;;;;;5054247;28;20025;-84
2021/07/16 03:15:10;;;;;;;5.15;3.65;;;;;;;;;;5054142;28;20352;-84
2021/07/16 03:17:39;;;;;;;6.65;3.17;;;;;;;;;;5053296;28;20083;-85
2021/07/16 03:20:06;;;;;;;5.55;3.25;;;;;;;;;;5053955;28;20021;-86
2021/07/16 03:22:32;;;;;;;7.40;3.55;;;;;;;;;;5053854;28;20479;-84
2021/07/16 03:24:58;;;;;;;6.15;3.75;;;;;;;;;;5053710;28;20032;-85
2021/07/16 03:27:24;;;;;;;6.45;4.25;;;;;;;;;;5051934;28;20037;-84
2021/07/16 03:29:50;;;;;;;6.95;4.35;;;;;;;;;;5053520;28;20048;-84
2021/07/16 03:32:16;;;;;;;10.07;4.00;;;;;;;;;;5053611;28;20503;-84
2021/07/16 03:34:42;;;;;;;7.32;3.75;;;;;;;;;;5053212;28;20025;-86
2021/07/16 03:37:08;;;;;;;5.07;3.58;;;;;;;;;;5053336;28;20039;-84
2021/07/16 03:39:34;;;;;;;6.97;3.38;;;;;;;;;;5051916;28;20553;-84
2021/07/16 03:42:00;;;;;;;7.65;4.10;;;;;;;;;;5053565;28;20021;-85
2021/07/16 03:44:26;;;;;;;5.18;3.50;;;;;;;;;;5052189;28;20175;-83
2021/07/16 03:46:52;;;;;;;6.07;3.70;;;;;;;;;;5051529;28;20370;-84
2021/07/16 03:49:18;;;;;;;6.60;4.03;;;;;;;;;;5053092;28;20037;-84
2021/07/16 03:51:44;;;;;;;4.50;3.78;;;;;;;;;;5053044;28;20025;-85
2021/07/16 03:54:10;;;;;;;5.85;3.80;;;;;;;;;;5052883;28;20490;-84
2021/07/16 03:56:36;;;;;;;6.50;3.50;;;;;;;;;;5052763;28;20029;-82
2021/07/16 03:59:02;;;;;;;6.93;3.58;;;;;;;;;;5052651;28;20073;-82
2021/07/16 04:01:28;;;;;;;4.95;3.35;;;;;;;;;;5051580;28;20491;-82
2021/07/16 04:03:54;;;;;;;6.60;3.60;;;;;;;;;;5051494;28;20102;-82
2021/07/16 04:06:21;;;;;;;6.38;3.50;;;;;;;;;;5051520;28;20475;-83
2021/07/16 04:08:47;;;;;;;12.18;3.88;;;;;;;;;;5052446;28;20056;-82
2021/07/16 04:11:13;;;;;;;4.32;3.35;;;;;;;;;;5051254;28;20032;-82
2021/07/16 04:13:39;;;;;;;5.90;3.20;;;;;;;;;;5051406;28;20021;-83
2021/07/16 04:16:05;;;;;;;6.22;3.53;;;;;;;;;;5052976;28;20104;-82
2021/07/16 04:18:31;;;;;;;7.72;3.55;;;;;;;;;;5050814;28;20021;-83
2021/07/16 04:20:57;;;;;;;3.97;3.30;;;;;;;;;;5052277;28;20098;-82
2021/07/16 04:23:23;;;;;;;5.65;3.65;;;;;;;;;;5052262;28;20024;-82
2021/07/16 04:25:49;;;;;;;6.55;3.42;;;;;;;;;;5052573;28;20029;-81
2021/07/16 04:28:15;;;;;;;10.32;3.40;;;;;;;;;;5052536;28;20037;-82
2021/07/16 04:30:41;;;;;;;6.32;3.60;;;;;;;;;;5051901;28;20037;-82
2021/07/16 04:33:08;;;;;;;6.03;3.75;;;;;;;;;;5050873;28;20032;-81
2021/07/16 04:35:34;;;;;;;4.80;3.80;;;;;;;;;;5052329;28;20431;-81
2021/07/16 04:38:00;;;;;;;6.15;3.95;;;;;;;;;;5050622;28;20052;-83
2021/07/16 04:40:27;;;;;;;9.35;4.20;;;;;;;;;;5050593;28;20041;-81
2021/07/16 04:42:54;;;;;;;6.20;4.57;;;;;;;;;;5052303;28;20497;-82
2021/07/16 04:45:20;;;;;;;;;;;;;;;;;;5051294;28;20013;-81
2021/07/16 04:47:46;;;;;;;10.00;4.78;;;;;;;;;;5050437;28;20411;-81
2021/07/16 04:50:13;;;;;;;7.90;4.85;;;;;;;;;;5051785;28;20041;-82
2021/07/16 04:52:39;;;;;;;10.80;5.45;;;;;;;;;;5050694;28;20025;-81
2021/07/16 04:55:06;;;;;;;8.10;5.20;;;;;;;;;;5052138;28;20170;-82
2021/07/16 04:57:32;;;;;;;8.95;5.43;;;;;;;;;;5050736;28;20021;-82
2021/07/16 04:59:58;;;;;;;8.88;5.00;;;;;;;;;;5050224;28;20037;-83
2021/07/16 05:02:24;;;;;;;6.93;4.22;;;;;;;;;;5051121;28;20120;-82
2021/07/16 05:04:50;;;;;;;7.20;3.53;;;;;;;;;;5050270;28;20021;-82
2021/07/16 05:07:17;;;;;;;7.10;3.50;;;;;;;;;;5051759;28;20047;-82
2021/07/16 05:09:43;;;;;;;8.48;3.38;;;;;;;;;;5051582;28;20044;-82
2021/07/16 05:12:09;;;;;;;5.13;3.30;;;;;;;;;;5050332;28;20483;-82
2021/07/16 05:14:35;;;;;;;8.93;2.88;;;;;;;;;;5050200;28;20025;-82
2021/07/16 05:17:01;;;;;;;3.97;2.97;;;;;;;;;;5049736;28;20108;-81
2021/07/16 05:19:27;;;;;;;4.53;2.75;;;;;;;;;;5049764;28;20033;-81
2021/07/16 05:21:54;;;;;;;5.85;3.00;;;;;;;;;;5051632;28;20029;-82
2021/07/16 05:24:21;;;;;;;5.05;3.38;;;;;;;;;;5051417;28;20017;-82
2021/07/16 05:26:47;;;;;;;5.17;2.90;;;;;;;;;;5049745;28;20075;-80
2021/07/16 05:29:13;;;;;;;3.00;2.55;;;;;;;;;;5051150;28;20635;-83
2021/07/16 05:31:39;;;;;;;5.43;2.80;;;;;;;;;;5050461;28;20064;-82
2021/07/16 05:34:05;;;;;;;7.68;2.67;;;;;;;;;;5049954;28;20067;-82
2021/07/16 05:36:30;;;;;;;5.78;2.90;;;;;;;;;;5051012;28;20525;-83
2021/07/16 05:39:02;;;;;;;5.43;2.63;;;;;;;;;;5050982;28;20018;-81
2021/07/16 05:41:28;;;;;;;5.57;2.75;;;;;;;;;;5050462;28;20495;-82
2021/07/16 05:43:54;;;;;;;6.05;3.00;;;;;;;;;;5051134;28;20028;-83
2021/07/16 05:46:20;;;;;;;7.47;3.10;;;;;;;;;;5049589;28;20531;-83
2021/07/16 05:48:47;;;;;;;7.07;3.38;;;;;;;;;;5050830;28;20036;-83
2021/07/16 05:51:13;;;;;;;8.87;3.90;;;;;;;;;;5048886;28;20037;-82
2021/07/16 05:53:39;;;;;;;11.23;4.13;;;;;;;;;;5050987;28;20017;-83
2021/07/16 05:56:05;;;;;;;7.70;3.95;;;;;;;;;;5051533;28;20039;-83
2021/07/16 05:58:31;;;;;;;6.78;4.40;;;;;;;;;;5049155;28;20025;-83
2021/07/16 06:00:57;;;;;;;9.75;4.65;;;;;;;;;;5049043;28;20033;-82
2021/07/16 06:03:23;;;;;;;9.13;4.38;;;;;;;;;;5050301;28;20049;-82
2021/07/16 06:05:49;;;;;;;10.18;5.25;;;;;;;;;;5048654;28;20025;-82
2021/07/16 06:08:15;;;;;;;7.93;4.00;;;;;;;;;;5050483;28;20043;-83
2021/07/16 06:10:41;;;;;;;10.15;4.50;;;;;;;;;;5050311;28;20446;-82
2021/07/16 06:13:07;;;;;;;8.63;4.05;;;;;;;;;;5049082;28;20034;-81
2021/07/16 06:15:33;;;;;;;5.82;3.75;;;;;;;;;;5050333;28;20432;-83
2021/07/16 06:18:00;;;;;;;15.68;10.98;;;;;;;;;;5050886;28;20086;-83
2021/07/16 06:20:26;;;;;;;7.10;4.88;;;;;;;;;;5050494;28;20091;-82
2021/07/16 06:22:52;;;;;;;5.47;3.20;;;;;;;;;;5050482;28;20021;-82
2021/07/16 06:25:18;;;;;;;7.95;3.40;;;;;;;;;;5050294;28;20068;-82
2021/07/16 06:27:44;;;;;;;4.63;3.47;;;;;;;;;;5048455;28;20039;-82
2021/07/16 06:30:11;;;;;;;10.30;3.17;;;;;;;;;;5049959;28;20083;-83
2021/07/16 06:32:37;;;;;;;5.32;3.20;;;;;;;;;;5050237;28;20118;-82
2021/07/16 06:35:04;;;;;;;8.70;3.10;;;;;;;;;;5048864;28;20043;-83
2021/07/16 06:37:30;;;;;;;5.85;3.20;;;;;;;;;;5050543;28;20033;-82
2021/07/16 06:39:57;;;;;;;4.93;2.80;;;;;;;;;;5048726;28;20074;-82
2021/07/16 06:42:23;;;;;;;;;;;;;;;;;;5049726;28;20041;-82
2021/07/16 06:44:49;;;;;;;4.50;3.17;;;;;;;;;;5048741;28;19999;-82
2021/07/16 06:47:15;;;;;;;5.07;2.40;;;;;;;;;;5049972;28;20057;-82
2021/07/16 06:49:41;;;;;;;5.03;2.70;;;;;;;;;;5050133;28;20146;-83
2021/07/16 06:52:08;;;;;;;5.15;2.80;;;;;;;;;;5049541;28;20048;-81
2021/07/16 06:54:34;;;;;;;3.70;2.88;;;;;;;;;;5049966;28;20104;-83
2021/07/16 06:57:00;;;;;;;6.85;3.30;;;;;;;;;;5048295;28;20119;-83
2021/07/16 06:59:26;;;;;;;5.72;2.83;;;;;;;;;;5048578;28;20629;-82
2021/07/16 07:01:52;;;;;;;5.32;2.60;;;;;;;;;;5049493;28;20041;-83
2021/07/16 07:04:18;;;;;;;5.72;2.83;;;;;;;;;;5048591;28;20507;-83
2021/07/16 07:06:44;;;;;;;3.58;2.55;;;;;;;;;;5049400;28;20047;-82
2021/07/16 07:09:10;;;;;;;3.28;2.40;;;;;;;;;;5049729;28;20025;-83
2021/07/16 07:11:36;;;;;;;8.57;2.47;;;;;;;;;;5048352;28;20048;-83
2021/07/16 07:14:03;;;;;;;5.18;2.47;;;;;;;;;;5049912;28;20052;-83
2021/07/16 07:16:29;;;;;;;4.17;3.00;;;;;;;;;;5048267;28;20029;-83
2021/07/16 07:18:55;;;;;;;4.50;2.60;;;;;;;;;;5049776;28;20155;-82
2021/07/16 07:21:21;;;;;;;5.50;2.70;;;;;;;;;;5049725;28;20029;-82
2021/07/16 07:23:46;;;;;;;8.68;2.88;;;;;;;;;;5048341;28;20044;-81
2021/07/16 07:26:12;;;;;;;4.50;2.70;;;;;;;;;;5049795;28;20021;-83
2021/07/16 07:28:38;;;;;;;6.15;2.40;;;;;;;;;;5048295;28;20117;-82
2021/07/16 07:31:05;;;;;;;11.15;2.60;;;;;;;;;;5049157;28;20083;-82
2021/07/16 07:33:31;;;;;;;5.50;2.40;;;;;;;;;;5049232;28;20541;-83
2021/07/16 07:35:57;;;;;;;15.43;5.68;;;;;;;;;;5049903;28;20032;-82
2021/07/16 07:38:24;;;;;;;3.88;2.63;;;;;;;;;;5049165;28;20174;-83
2021/07/16 07:40:50;;;;;;;6.18;3.13;;;;;;;;;;5049556;28;20119;-83
2021/07/16 07:43:16;;;;;;;5.18;2.67;;;;;;;;;;5047980;28;20037;-81
2021/07/16 07:45:43;;;;;;;5.35;2.60;;;;;;;;;;5048234;28;20376;-82
2021/07/16 07:48:09;;;;;;;4.85;2.35;;;;;;;;;;5048926;28;20033;-82
2021/07/16 07:50:35;;;;;;;5.95;2.45;;;;;;;;;;5049809;28;20040;-82
2021/07/16 07:53:01;;;;;;;5.88;2.63;;;;;;;;;;5049313;28;20048;-82
2021/07/16 07:55:28;;;;;;;26.73;14.20;;;;;;;;;;5051420;28;20029;-81
2021/07/16 07:57:54;;;;;;;5.78;2.78;;;;;;;;;;5051457;28;20139;-82
2021/07/16 08:00:22;;;;;;;4.63;2.63;;;;;;;;;;5052951;28;20379;-83
2021/07/16 08:02:48;;;;;;;9.65;2.70;;;;;;;;;;5051009;28;20138;-81
2021/07/16 08:05:14;;;;;;;6.82;2.95;;;;;;;;;;5052805;28;20046;-82
2021/07/16 08:07:40;;;;;;;4.18;2.35;;;;;;;;;;5051048;28;20550;-83
2021/07/16 08:10:08;;;;;;;4.05;2.70;;;;;;;;;;5052539;28;20573;-82
2021/07/16 08:12:34;;;;;;;3.20;2.47;;;;;;;;;;5052579;28;20119;-82
2021/07/16 08:15:01;;;;;;;6.30;2.60;;;;;;;;;;5052840;28;20025;-81
2021/07/16 08:17:27;;;;;;;6.72;2.78;;;;;;;;;;5052736;28;20110;-81
2021/07/16 08:19:53;;;;;;;3.38;2.50;;;;;;;;;;5052442;28;20021;-83
2021/07/16 08:22:19;;;;;;;6.63;2.60;;;;;;;;;;5052374;28;20035;-82
2021/07/16 08:24:45;;;;;;;4.85;2.45;;;;;;;;;;5052701;28;20029;-83
2021/07/16 08:27:11;;;;;;;5.85;2.38;;;;;;;;;;5052493;28;20579;-82
2021/07/16 08:29:37;;;;;;;9.70;2.80;;;;;;;;;;5052798;28;20525;-82
2021/07/16 08:32:03;;;;;;;8.32;3.20;;;;;;;;;;5051867;28;20033;-82
2021/07/16 08:34:29;;;;;;;8.15;4.95;;;;;;;;;;5050876;28;20366;-83
2021/07/16 08:36:55;;;;;;;7.25;3.13;;;;;;;;;;5050889;28;20033;-83
2021/07/16 08:39:21;;;;;;;4.25;2.35;;;;;;;;;;5052323;28;20344;-83
2021/07/16 08:41:47;;;;;;;6.97;2.38;;;;;;;;;;5052157;28;20040;-81
2021/07/16 08:44:14;;;;;;;4.93;2.28;;;;;;;;;;5050632;28;20499;-82
2021/07/16 08:46:44;;;;;;;4.60;2.42;;;;;;;;;;5052175;28;20025;-82
2021/07/16 08:49:11;;;;;;;3.13;2.25;;;;;;;;;;5051981;28;20431;-82
2021/07/16 08:51:38;;;;;;;4.93;2.40;;;;;;;;;;5051710;28;20063;-82
2021/07/16 08:54:04;;;;;;;4.72;2.50;;;;;;;;;;5051691;28;20122;-83
2021/07/16 08:56:35;;;;;;;3.40;2.23;;;;;;;;;;5050481;28;20039;-82
2021/07/16 08:59:05;;;;;;;4.28;2.65;;;;;;;;;;5051422;28;20102;-82
2021/07/16 09:01:31;;;;;;;3.70;2.47;;;;;;;;;;5051762;28;20021;-81
2021/07/16 09:04:01;;;;;;;4.88;2.40;;;;;;;;;;5050020;28;20971;-82
2021/07/16 09:06:45;;;;;;;7.40;2.83;;;;;;;;;;5050436;28;20498;-82
2021/07/16 09:09:12;;;;;;;11.45;4.38;;;;;;;;;;5050172;28;20032;-83
2021/07/16 09:11:38;;;;;;;15.85;4.63;;;;;;;;;;5049915;28;20027;-83
2021/07/16 09:14:05;;;;;;;4.70;2.33;;;;;;;;;;5051544;28;20049;-83
2021/07/16 09:16:31;;;;;;;7.22;2.40;;;;;;;;;;5051332;28;20025;-82
2021/07/16 09:18:57;;;;;;;3.70;2.40;;;;;;;;;;5050112;28;20036;-83
2021/07/16 09:21:23;;;;;;;4.38;2.17;;;;;;;;;;5050169;28;20428;-83
2021/07/16 09:23:49;;;;;;;2.15;1.95;;;;;;;;;;5050654;28;20124;-83
2021/07/16 09:26:17;;;;;;;2.90;2.00;;;;;;;;;;5050142;28;20025;-82
2021/07/16 09:28:44;;;;;;;3.35;1.80;;;;;;;;;;5051291;28;20543;-82
2021/07/16 09:31:10;;;;;;;2.92;1.73;;;;;;;;;;5051116;28;20052;-82
2021/07/16 09:33:40;;;;;;;5.95;1.90;;;;;;;;;;5049213;28;20075;-82
2021/07/16 09:36:06;;;;;;;2.83;2.20;;;;;;;;;;5051098;28;20549;-82
2021/07/16 09:38:34;;;;;;;1.90;1.70;;;;;;;;;;5051141;28;20515;-83
2021/07/16 09:41:05;;;;;;;2.72;1.95;;;;;;;;;;5050996;28;20104;-81
2021/07/16 09:43:31;;;;;;;2.42;1.90;;;;;;;;;;5050286;28;20037;-82
2021/07/16 09:45:58;;;;;;;4.32;2.17;;;;;;;;;;5049615;28;20021;-83
2021/07/16 09:48:29;;;;;;;2.35;1.83;;;;;;;;;;5051018;28;20499;-83
2021/07/16 09:51:06;;;;;;;6.57;2.25;;;;;;;;;;5050882;28;20028;-81
2021/07/16 09:53:39;;;;;;;8.13;4.28;;;;;;;;;;5050584;28;20041;-82
2021/07/16 09:56:11;;;;;;;6.90;2.40;;;;;;;;;;5050367;28;20162;-82
2021/07/16 09:58:37;;;;;;;1.98;1.80;;;;;;;;;;5050965;28;20025;-82
2021/07/16 10:01:03;;;;;;;4.55;2.55;;;;;;;;;;5050683;28;20028;-82
2021/07/16 10:03:29;;;;;;;5.38;2.08;;;;;;;;;;5050129;28;20045;-83
2021/07/16 10:05:55;;;;;;;2.33;2.10;;;;;;;;;;5050694;28;20021;-83
2021/07/16 10:08:21;;;;;;;4.80;2.25;;;;;;;;;;5050265;28;20056;-83
2021/07/16 10:10:48;;;;;;;4.18;2.00;;;;;;;;;;5049020;28;20776;-81
2021/07/16 10:13:14;;;;;;;;;;;;;;;;;;5049628;28;20379;-84
2021/07/16 10:15:44;;;;;;;4.43;1.77;;;;;;;;;;5048960;28;19909;-83
2021/07/16 10:18:10;;;;;;;3.45;2.17;;;;;;;;;;5050111;28;20126;-84
2021/07/16 10:20:36;;;;;;;2.80;1.80;;;;;;;;;;5048722;28;20170;-82
2021/07/16 10:23:03;;;;;;;4.57;2.10;;;;;;;;;;5049160;28;20371;-83
2021/07/16 10:25:29;;;;;;;6.35;2.17;;;;;;;;;;5049971;28;20052;-82
2021/07/16 10:27:55;;;;;;;2.63;1.80;;;;;;;;;;5048410;28;20044;-83
2021/07/16 10:30:25;;;;;;;2.53;2.05;;;;;;;;;;5050414;28;20266;-83
2021/07/16 10:32:51;;;;;;;2.20;2.00;;;;;;;;;;5050083;28;20112;-82
2021/07/16 10:35:20;;;;;;;2.38;1.75;;;;;;;;;;5050113;28;20158;-83
2021/07/16 10:37:47;;;;;;;1.98;1.73;;;;;;;;;;5050169;28;20039;-83
2021/07/16 10:40:31;;;;;;;2.40;1.80;;;;;;;;;;5049747;28;20047;-82
2021/07/16 10:42:57;;;;;;;2.33;1.95;;;;;;;;;;5050141;28;20429;-82
2021/07/16 10:45:31;;;;;;;2.47;1.73;;;;;;;;;;5049901;28;20099;-83
2021/07/16 10:48:08;;;;;;;3.10;1.92;;;;;;;;;;5048487;28;20047;-83
2021/07/16 10:50:37;;;;;;;2.75;1.73;;;;;;;;;;5050195;28;20100;-83
2021/07/16 10:53:03;;;;;;;3.47;2.00;;;;;;;;;;5049854;28;20324;-82
2021/07/16 10:55:29;;;;;;;2.03;1.80;;;;;;;;;;5049794;28;20071;-82
2021/07/16 10:57:55;;;;;;;3.22;1.98;;;;;;;;;;5050123;28;20025;-83
2021/07/16 11:00:36;;;;;;;2.20;1.60;;;;;;;;;;5050055;28;20029;-82
2021/07/16 11:03:09;;;;;;;2.88;1.77;;;;;;;;;;5050082;28;20085;-84
2021/07/16 11:05:35;;;;;;;1.90;1.80;;;;;;;;;;5049919;28;20112;-83
2021/07/16 11:08:01;;;;;;;3.90;1.80;;;;;;;;;;5049882;28;20151;-84
2021/07/16 11:10:47;;;;;;;1.98;1.75;;;;;;;;;;5049785;28;20029;-82
2021/07/16 11:13:31;;;;;;;3.45;1.80;;;;;;;;;;5048367;28;20494;-83
2021/07/16 11:15:57;;;;;;;3.33;2.13;;;;;;;;;;5049298;28;20038;-84
2021/07/16 11:18:27;;;;;;;3.33;1.88;;;;;;;;;;5049963;28;20025;-83
2021/07/16 11:20:57;;;;;;;2.10;1.90;;;;;;;;;;5048407;28;20039;-83
2021/07/16 11:23:41;;;;;;;3.45;1.70;;;;;;;;;;5049973;28;20123;-84
2021/07/16 11:26:15;;;;;;;4.07;1.77;;;;;;;;;;5049493;28;20041;-83
2021/07/16 11:28:41;;;;;;;3.42;1.95;;;;;;;;;;5049323;28;20372;-83
2021/07/16 11:31:07;;;;;;;2.37;1.87;;;;;;;;;;5053120;28;20043;-82
2021/07/16 11:33:33;;;;;;;3.07;1.80;;;;;;;;;;5053536;28;20398;-83
2021/07/16 11:35:59;;;;;;;3.83;2.00;;;;;;;;;;5053307;28;20311;-83
2021/07/16 11:38:26;;;;;;;2.45;2.05;;;;;;;;;;5053405;28;20203;-83
2021/07/16 11:40:52;;;;;;;3.42;1.70;;;;;;;;;;5053373;28;20032;-83
2021/07/16 11:43:18;;;;;;;3.00;1.97;;;;;;;;;;5051850;28;20025;-83
2021/07/16 11:45:44;;;;;;;2.40;1.80;;;;;;;;;;5053382;28;20041;-83
2021/07/16 11:48:21;;;;;;;3.90;1.55;;;;;;;;;;5051636;28;20098;-83
2021/07/16 11:50:48;;;;;;;2.38;1.80;;;;;;;;;;5051657;28;20025;-82
2021/07/16 11:53:18;;;;;;;2.30;1.75;;;;;;;;;;5053035;28;20125;-83
2021/07/16 11:55:45;;;;;;;2.03;1.63;;;;;;;;;;5051029;28;20116;-83
2021/07/16 11:58:12;;;;;;;3.33;1.75;;;;;;;;;;5052848;28;20082;-83
2021/07/16 12:00:39;;;;;;;2.67;1.70;;;;;;;;;;5051721;28;20484;-82
2021/07/16 12:03:06;;;;;;;2.08;1.63;;;;;;;;;;5052896;28;20530;-82
2021/07/16 12:05:34;;;;;;;4.13;2.95;;;;;;;;;;5052336;28;20087;-83
2021/07/16 12:08:00;;;;;;;3.67;3.20;;;;;;;;;;5052794;28;20037;-82
2021/07/16 12:10:26;;;;;;;5.47;1.83;;;;;;;;;;5051502;28;20084;-82
2021/07/16 12:12:59;;;;;;;2.93;1.90;;;;;;;;;;5051255;28;20497;-82
2021/07/16 12:15:25;;;;;;;2.10;1.90;;;;;;;;;;5052535;28;20334;-83
2021/07/16 12:17:52;;;;;;;2.20;1.92;;;;;;;;;;5052279;28;20028;-84
2021/07/16 12:20:19;;;;;;;3.67;2.15;;;;;;;;;;5051220;28;20021;-83
2021/07/16 12:22:46;;;;;;;;;;;;;;;;;;5053164;28;20100;-83
2021/07/16 12:25:13;;;;;;;3.80;1.90;;;;;;;;;;5052069;28;19909;-81
2021/07/16 12:27:39;;;;;;;2.78;1.90;;;;;;;;;;5052725;28;20029;-83
2021/07/16 12:30:10;;;;;;;4.53;2.40;;;;;;;;;;5052618;28;20028;-83
2021/07/16 12:32:43;;;;;;;6.13;2.38;;;;;;;;;;5051068;28;20472;-83
2021/07/16 12:35:12;;;;;;;7.88;2.50;;;;;;;;;;5051843;28;20052;-84
2021/07/16 12:37:40;;;;;;;5.10;2.53;;;;;;;;;;5052608;28;20384;-83
2021/07/16 12:40:06;;;;;;;4.97;2.63;;;;;;;;;;5052324;28;20416;-83
2021/07/16 12:42:35;;;;;;;4.20;2.60;;;;;;;;;;5052472;28;20032;-83
2021/07/16 12:45:02;;;;;;;4.95;2.40;;;;;;;;;;5050351;28;20025;-83
2021/07/16 12:47:29;;;;;;;5.45;2.78;;;;;;;;;;5050449;28;20475;-82
2021/07/16 12:50:05;;;;;;;6.88;2.67;;;;;;;;;;5050706;28;20380;-82
2021/07/16 12:52:31;;;;;;;4.78;2.50;;;;;;;;;;5050451;28;20580;-83
2021/07/16 12:55:12;;;;;;;5.63;2.67;;;;;;;;;;5052130;28;20468;-82
2021/07/16 12:57:38;;;;;;;7.30;2.85;;;;;;;;;;5051623;28;20037;-83
2021/07/16 13:00:16;;;;;;;13.93;3.43;;;;;;;;;;5050193;28;20025;-82
2021/07/16 13:02:43;;;;;;;6.07;2.70;;;;;;;;;;5050377;28;20306;-83
2021/07/16 13:05:09;;;;;;;3.72;2.78;;;;;;;;;;5050266;28;20025;-82
2021/07/16 13:07:35;;;;;;;3.60;2.35;;;;;;;;;;5050315;28;20051;-81
2021/07/16 13:10:20;;;;;;;4.85;3.20;;;;;;;;;;5051190;28;20070;-82
2021/07/16 13:12:46;;;;;;;5.20;2.70;;;;;;;;;;5051773;28;20025;-83
2021/07/16 13:15:12;;;;;;;5.73;2.57;;;;;;;;;;5050247;28;20032;-83
2021/07/16 13:17:38;;;;;;;4.07;2.58;;;;;;;;;;5051333;28;20033;-83
2021/07/16 13:20:09;;;;;;;5.03;2.60;;;;;;;;;;5051497;28;20024;-82
2021/07/16 13:22:36;;;;;;;3.67;2.60;;;;;;;;;;5049715;28;20028;-82
2021/07/16 13:25:04;;;;;;;3.85;2.70;;;;;;;;;;5051395;28;20032;-82
2021/07/16 13:27:29;;;;;;;4.18;2.65;;;;;;;;;;5050855;28;20090;-82
2021/07/16 13:29:56;;;;;;;3.50;2.60;;;;;;;;;;5049591;28;20430;-82
2021/07/16 13:32:22;;;;;;;5.13;2.70;;;;;;;;;;5051291;28;20370;-82
2021/07/16 13:34:48;;;;;;;6.78;2.70;;;;;;;;;;5050987;28;20087;-82
2021/07/16 13:37:14;;;;;;;5.20;2.53;;;;;;;;;;5049194;28;20113;-82
2021/07/16 13:39:41;;;;;;;6.70;2.58;;;;;;;;;;5051518;28;20027;-84
2021/07/16 13:42:07;;;;;;;4.07;2.70;;;;;;;;;;5051156;28;20021;-83
2021/07/16 13:44:33;;;;;;;3.70;2.60;;;;;;;;;;5050729;28;20489;-82
2021/07/16 13:47:00;;;;;;;4.68;2.70;;;;;;;;;;5050649;28;20132;-84
2021/07/16 13:49:26;;;;;;;4.70;2.50;;;;;;;;;;5050989;28;20032;-83
2021/07/16 13:51:52;;;;;;;5.15;2.90;;;;;;;;;;5048923;28;20028;-84
2021/07/16 13:54:18;;;;;;;9.35;3.05;;;;;;;;;;5049048;28;20017;-83
2021/07/16 13:56:45;;;;;;;6.95;3.00;;;;;;;;;;5050575;28;20107;-83
2021/07/16 13:59:11;;;;;;;7.13;4.30;;;;;;;;;;5050895;28;20052;-82
2021/07/16 14:01:37;;;;;;;8.20;4.10;;;;;;;;;;5050717;28;19975;-82
2021/07/16 14:04:03;;;;;;;8.75;4.15;;;;;;;;;;5050489;28;20479;-82
2021/07/16 14:06:29;;;;;;;8.07;4.13;;;;;;;;;;5050656;28;20108;-82
2021/07/16 14:08:55;;;;;;;6.18;3.83;;;;;;;;;;5050134;28;20108;-83
2021/07/16 14:11:21;;;;;;;6.63;3.72;;;;;;;;;;5051235;28;20078;-82
2021/07/16 14:13:47;;;;;;;7.93;3.50;;;;;;;;;;5050557;28;20031;-82
2021/07/16 14:16:13;;;;;;;8.65;3.67;;;;;;;;;;5050565;28;20112;-84
2021/07/16 14:18:39;;;;;;;7.10;3.85;;;;;;;;;;5049596;28;20044;-83
2021/07/16 14:21:05;;;;;;;;;;;;;;;;;;5051251;28;20460;-83
2021/07/16 14:23:31;;;;;;;8.52;3.75;;;;;;;;;;5050230;28;19912;-83
2021/07/16 14:25:57;;;;;;;8.27;3.70;;;;;;;;;;5050421;28;20063;-83
2021/07/16 14:28:23;;;;;;;22.98;5.03;;;;;;;;;;5048791;28;20044;-81
2021/07/16 14:30:51;;;;;;;26.15;8.07;;;;;;;;;;5049995;28;20361;-75
2021/07/16 14:33:17;;;;;;;21.25;5.93;;;;;;;;;;5048464;28;20029;-73
2021/07/16 14:35:43;;;;;;;9.37;4.00;;;;;;;;;;5050197;28;20077;-72
2021/07/16 14:38:09;;;;;;;7.00;3.65;;;;;;;;;;5049645;28;20645;-71
2021/07/16 14:40:35;;;;;;;6.57;2.95;;;;;;;;;;5050025;28;20035;-72
2021/07/16 14:43:01;;;;;;;10.15;5.47;;;;;;;;;;5050215;28;20452;-71